Latest Weather Observations for Trangie

IDN60801

Issued at 11:02 am EST Saturday 5 September 2015 (issued every 30 minutes, with the page automatically refreshed every 10 minutes)

About weather observations | Map of weather stations | Latest weather observations for NSW | Other Formats
Station Details ID: 051049 Name: TRANGIE RESEARCH STATION AWS Lat: -31.99 Lon: 147.95 Height: 215.0 m
Data from the previous 72 hours. | See also: Recent months at Trangie
Date/Time
EST
Temp
°C
App
Temp
°C
Dew
Point
Rel
Hum
%
Delta-T
°C
Wind Press
QNH
hPa
Press
MSL
hPa
Rain
since 9 am
mm
Dir
 
Spd
km/h
Gust
km/h
Spd
kts
Gust
kts
05/10:30am 14.6 13.5 10.0 74 2.4 S 6 9 3 5 1023.6 1023.5 0.0
05/10:00am 13.7 12.1 10.1 79 1.9 SW 9 13 5 7 1023.9 1023.8 0.0
05/09:30am 12.8 10.8 10.2 84 1.4 NW 11 15 6 8 1023.9 1023.8 0.0
05/09:00am 11.6 9.6 8.6 82 1.5 SE 9 15 5 8 1024.0 1023.9 0.2
05/08:30am 10.2 8.2 8.6 90 0.8 SE 9 13 5 7 1024.0 1023.9 0.2
05/08:00am 8.3 6.5 7.9 97 0.2 S 7 11 4 6 1023.8 1023.7 0.2
05/07:30am 6.5 5.7 6.4 99 0.0 CALM 0 0 0 0 1023.5 1023.4 0.2
05/07:00am 4.7 3.5 4.6 99 0.0 CALM 0 4 0 2 1023.4 1023.3 0.2
05/06:30am 4.2 1.6 4.1 99 0.0 N 7 7 4 4 1023.1 1023.0 0.2
05/06:00am 5.0 2.1 4.9 99 0.0 N 9 13 5 7 1022.5 1022.4 0.2
05/05:30am 5.3 2.9 5.2 99 0.0 N 7 11 4 6 1022.4 1022.3 0.2
05/05:00am 5.1 2.3 5.0 99 0.0 N 9 11 5 6 1022.0 1021.9 0.2
05/04:30am 5.4 3.2 5.3 99 0.0 S 6 7 3 4 1021.8 1021.7 0.2
05/04:00am 6.0 3.4 5.9 99 0.0 N 9 11 5 6 1021.7 1021.6 0.2
05/03:30am 6.3 3.7 6.2 99 0.0 N 9 11 5 6 1021.7 1021.6 0.2
05/03:00am 6.5 4.0 6.4 99 0.0 N 9 13 5 7 1021.8 1021.7 0.2
05/02:30am 6.8 4.3 6.7 99 0.0 N 9 11 5 6 1021.9 1021.8 0.2
05/02:00am 7.0 4.6 6.9 99 0.0 N 9 13 5 7 1022.2 1022.1 0.2
05/01:30am 7.5 4.8 7.2 98 0.1 N 11 13 6 7 1022.3 1022.2 0.2
05/01:00am 7.9 5.3 7.6 98 0.1 N 11 13 6 7 1022.5 1022.4 0.2
05/12:30am 8.3 5.7 7.9 97 0.2 N 11 15 6 8 1022.7 1022.7 0.2
05/12:00am 8.5 5.9 7.9 96 0.3 N 11 15 6 8 1022.9 1022.9 0.2
 
Date/Time
EST
Temp
°C
App
Temp
°C
Dew
Point
Rel
Hum
%
Delta-T
°C
Wind Press
QNH
hPa
Press
MSL
hPa
Rain
since 9 am
mm
Dir
 
Spd
km/h
Gust
km/h
Spd
kts
Gust
kts
04/11:30pm 8.8 6.6 8.0 95 0.4 N 9 11 5 6 1023.1 1023.0 0.2
04/11:00pm 9.3 7.2 8.4 94 0.4 N 9 13 5 7 1023.2 1023.1 0.2
04/10:30pm 9.7 8.1 8.6 93 0.5 SSW 7 11 4 6 1023.2 1023.1 0.2
04/10:00pm 10.2 7.8 8.6 90 0.8 N 11 15 6 8 1023.1 1023.0 0.2
04/09:30pm 10.5 8.6 9.1 91 0.7 N 9 13 5 7 1022.8 1022.8 0.2
04/09:00pm 8.9 7.1 8.1 95 0.4 NW 7 13 4 7 1022.5 1022.4 0.2
04/08:30pm 9.5 9.3 9.2 98 0.1 CALM 0 0 0 0 1022.1 1022.0 0.2
04/08:00pm 9.7 9.5 8.9 95 0.4 CALM 0 0 0 0 1022.0 1021.9 0.2
04/07:30pm 10.8 10.8 9.9 94 0.5 CALM 0 0 0 0 1021.7 1021.6 0.2
04/07:00pm 11.4 11.4 9.8 90 0.8 CALM 0 0 0 0 1021.6 1021.5 0.2
04/06:30pm 13.1 13.1 9.7 80 1.8 CALM 0 0 0 0 1021.2 1021.1 0.2
04/06:00pm 15.3 15.6 10.9 75 2.4 CALM 0 0 0 0 1021.0 1020.9 0.2
04/05:30pm 16.9 16.9 9.8 63 3.8 CALM 0 0 0 0 1020.8 1020.7 0.2
04/05:00pm 18.1 18.0 9.5 57 4.6 CALM 0 0 0 0 1020.9 1020.8 0.2
04/04:30pm 18.2 18.4 10.6 61 4.1 CALM 0 0 0 0 1020.9 1020.8 0.2
04/04:00pm 18.4 18.0 9.7 57 4.6 W 2 6 1 3 1021.0 1020.9 0.2
04/03:30pm 19.3 19.7 11.3 60 4.4 CALM 0 0 0 0 1021.0 1020.9 0.2
04/03:00pm 19.4 18.7 9.9 54 5.1 NNW 4 9 2 5 1021.0 1020.9 0.2
04/02:30pm 18.7 18.1 8.9 53 5.2 NW 2 6 1 3 1021.0 1020.9 0.2
04/02:00pm 17.6 17.3 10.2 62 4.0 E 2 7 1 4 1021.2 1021.1 0.2
04/01:30pm 17.4 16.1 9.1 58 4.4 SSE 6 7 3 4 1021.5 1021.4 0.2
04/01:00pm 17.4 16.6 9.8 61 4.0 S 4 9 2 5 1021.8 1021.7 0.2
04/12:30pm 18.1 16.6 10.5 61 4.1 ENE 9 13 5 7 1022.0 1021.9 0.2
04/12:00pm 17.5 16.6 11.3 67 3.4 ESE 7 15 4 8 1022.4 1022.3 0.2
04/11:30am 17.1 16.2 11.4 69 3.1 ESE 7 13 4 7 1022.7 1022.7 0.2
04/11:00am 16.4 15.0 10.9 70 3.0 ESE 9 13 5 7 1023.1 1023.0 0.0
04/10:30am 15.4 13.9 10.6 73 2.6 SE 9 19 5 10 1023.1 1023.0 0.0
04/10:00am 14.3 12.5 10.9 80 1.8 SE 11 19 6 10 1023.2 1023.1 0.0
04/09:30am 13.4 11.9 11.8 90 0.9 SSE 11 15 6 8 1023.3 1023.2 0.0
04/09:00am 12.1 10.8 11.2 94 0.5 SSE 9 15 5 8 1023.2 1023.1 1.8
04/08:30am 10.5 8.5 10.3 99 0.1 SSE 11 15 6 8 1023.1 1023.0 1.8
04/08:00am 9.1 7.2 9.0 99 0.0 SSE 9 15 5 8 1022.6 1022.6 1.8
04/07:30am 7.6 5.3 7.5 99 0.0 SSE 9 13 5 7 1022.4 1022.3 1.8
04/07:00am 5.6 3.3 5.5 99 0.0 SSE 7 9 4 5 1022.0 1021.9 1.8
04/06:30am 5.1 2.3 5.0 99 0.0 N 9 11 5 6 1021.5 1021.4 1.8
04/06:00am 5.3 2.9 5.2 99 0.0 N 7 9 4 5 1021.2 1021.1 1.8
04/05:30am 5.4 2.6 5.3 99 0.0 NNW 9 11 5 6 1021.1 1021.0 1.8
04/05:00am 3.7 0.6 3.6 99 0.0 WSW 9 11 5 6 1020.7 1020.6 1.8
04/04:30am 4.3 2.3 4.2 99 0.0 N 4 7 2 4 1020.5 1020.4 1.8
04/04:00am 5.1 2.8 5.0 99 0.0 SSE 6 7 3 4 1020.1 1020.0 1.8
04/03:30am 4.6 2.1 4.5 99 0.0 SW 7 9 4 5 1019.9 1019.8 1.8
04/03:00am 5.0 2.7 4.9 99 0.0 WSW 6 7 3 4 1020.0 1019.9 1.8
04/02:30am 4.4 3.1 4.3 99 0.0 CALM 0 6 0 3 1019.9 1019.8 1.8
04/02:00am 6.4 4.8 6.3 99 0.0 S 4 7 2 4 1019.8 1019.7 1.8
04/01:30am 6.5 4.3 6.4 99 0.0 NE 7 9 4 5 1019.7 1019.6 1.8
04/01:00am 6.7 4.2 6.6 99 0.0 SW 9 11 5 6 1019.7 1019.6 1.8
04/12:30am 6.5 4.0 6.4 99 0.0 WSW 9 11 5 6 1019.7 1019.6 1.8
04/12:00am 6.9 4.5 6.8 99 0.0 WNW 9 11 5 6 1019.8 1019.7 1.8
 
Date/Time
EST
Temp
°C
App
Temp
°C
Dew
Point
Rel
Hum
%
Delta-T
°C
Wind Press
QNH
hPa
Press
MSL
hPa
Rain
since 9 am
mm
Dir
 
Spd
km/h
Gust
km/h
Spd
kts
Gust
kts
03/11:30pm 8.4 6.9 8.3 99 0.0 WNW 6 7 3 4 1019.6 1019.5 1.8
03/11:00pm 8.6 6.2 8.5 99 0.0 WSW 11 13 6 7 1019.1 1019.0 1.8
03/10:30pm 9.8 6.9 9.7 99 0.1 WSW 15 17 8 9 1019.3 1019.2 1.8
03/10:00pm 10.0 7.9 9.9 99 0.1 WSW 11 17 6 9 1019.2 1019.1 1.8
03/09:30pm 10.9 7.8 10.3 96 0.3 WSW 17 22 9 12 1019.1 1019.0 1.8
03/09:00pm 11.0 7.9 10.2 95 0.4 WSW 17 24 9 13 1018.6 1018.4 1.8
03/08:30pm 10.9 7.5 10.4 97 0.3 WSW 19 24 10 13 1018.3 1018.1 1.8
03/08:00pm 10.7 7.0 10.2 97 0.3 WSW 20 26 11 14 1017.6 1017.5 1.8
03/07:30pm 9.9 7.0 9.8 99 0.1 WSW 15 19 8 10 1017.3 1017.2 1.8
03/07:00pm 10.3 6.6 9.5 95 0.4 WSW 19 22 10 12 1016.6 1016.5 1.8
03/06:30pm 10.4 7.5 9.8 96 0.3 WSW 15 20 8 11 1016.1 1016.0 1.8
03/06:00pm 11.0 6.0 9.6 91 0.7 WSW 26 41 14 22 1015.5 1015.4 1.8
03/05:30pm 11.8 6.5 9.9 88 1.0 WSW 28 46 15 25 1014.9 1014.8 1.8
03/05:00pm 12.4 9.0 10.5 88 1.0 WSW 19 24 10 13 1014.2 1014.0 1.6
03/04:30pm 11.7 7.6 10.1 90 0.8 WSW 22 35 12 19 1013.6 1013.4 1.6
03/04:13pm 13.1 6.9 9.2 77 2.0 WSW 32 57 17 31 1013.0 1012.9 1.6
03/04:00pm 14.7 9.2 9.3 70 2.8 WSW 28 44 15 24 1012.4 1012.3 1.6
03/03:30pm 14.9 9.9 10.9 77 2.1 WSW 28 37 15 20 1012.2 1012.1 1.6
03/03:00pm 13.9 10.1 11.2 84 1.4 W 22 30 12 16 1011.8 1011.7 1.6
03/02:30pm 14.2 10.5 11.4 83 1.5 W 22 33 12 18 1011.5 1011.4 1.6
03/02:00pm 14.5 11.2 11.5 82 1.6 W 20 28 11 15 1011.1 1011.0 1.6
03/01:30pm 14.1 11.4 12.8 92 0.7 WSW 19 26 10 14 1011.2 1011.1 1.6
03/01:00pm 13.6 11.0 12.0 90 0.9 WSW 17 26 9 14 1011.4 1011.3 1.4
03/12:30pm 12.2 8.6 12.0 99 0.1 WSW 22 30 12 16 1011.6 1011.5 1.4
03/12:00pm 10.9 7.3 10.7 99 0.1 WNW 20 26 11 14 1011.7 1011.6 1.4
03/11:30am 10.5 6.8 10.3 99 0.1 W 20 28 11 15 1011.8 1011.7 1.2
03/11:00am 11.7 7.0 9.4 86 1.2 W 24 35 13 19 1011.3 1011.2 0.8
03/10:30am 11.6 7.9 10.0 90 0.8 W 20 26 11 14 1011.1 1011.0 0.8
03/10:00am 10.8 7.8 10.5 98 0.2 W 17 20 9 11 1010.8 1010.7 0.8
03/09:30am 9.9 7.0 9.8 99 0.1 W 15 20 8 11 1010.6 1010.4 0.6
03/09:00am 9.6 6.3 9.5 99 0.1 WNW 17 22 9 12 1010.5 1010.3 1.0
03/08:30am 9.7 5.8 9.4 98 0.2 WNW 20 28 11 15 1010.2 1010.0 0.8
03/08:00am 9.4 5.3 8.8 96 0.3 NW 20 26 11 14 1009.4 1009.2 0.8
03/07:30am 8.6 5.4 8.5 99 0.0 NNW 15 20 8 11 1009.1 1008.9 0.4
03/07:00am 8.3 5.8 8.2 99 0.0 NNW 11 15 6 8 1008.6 1008.4 0.4
03/06:30am 8.0 5.4 7.9 99 0.0 N 11 15 6 8 1008.1 1008.0 0.4
03/06:00am 7.6 4.9 7.5 99 0.0 N 11 15 6 8 1007.9 1007.8 0.4
03/05:30am 7.4 4.7 7.3 99 0.0 N 11 15 6 8 1008.1 1008.0 0.4
03/05:00am 6.0 3.9 5.9 99 0.0 N 6 7 3 4 1007.8 1007.7 0.4
03/04:30am 6.2 4.0 6.1 99 0.0 N 7 9 4 5 1007.5 1007.4 0.4
03/04:00am 6.9 4.8 6.8 99 0.0 N 7 9 4 5 1007.4 1007.3 0.4
03/03:30am 6.7 4.6 6.6 99 0.0 N 7 7 4 4 1007.7 1007.6 0.4
03/03:00am 6.7 4.8 6.6 99 0.0 NNW 6 7 3 4 1007.7 1007.6 0.4
03/02:30am 7.2 4.8 7.1 99 0.0 NW 9 11 5 6 1008.1 1008.0 0.4
03/02:00am 8.4 5.9 8.1 98 0.1 WNW 11 13 6 7 1008.5 1008.3 0.4
03/01:30am 9.5 6.0 8.6 94 0.4 WNW 17 24 9 13 1008.6 1008.4 0.4
03/01:00am 10.9 6.2 9.3 90 0.8 W 24 32 13 17 1008.8 1008.6 0.4
03/12:30am 12.2 7.9 10.8 91 0.7 WNW 24 35 13 19 1008.3 1008.2 0.4
03/12:00am 12.9 9.2 11.5 91 0.8 NW 22 33 12 18 1008.0 1007.9 0.4
 
Date/Time
EST
Temp
°C
App
Temp
°C
Dew
Point
Rel
Hum
%
Delta-T
°C
Wind Press
QNH
hPa
Press
MSL
hPa
Rain
since 9 am
mm
Dir
 
Spd
km/h
Gust
km/h
Spd
kts
Gust
kts
02/11:30pm 13.0 9.9 10.4 84 1.4 NNW 17 22 9 12 1007.4 1007.3 0.4
02/11:00pm 13.3 11.3 10.3 82 1.6 NW 11 15 6 8 1007.1 1007.0 0.4
02/10:30pm 13.0 11.6 9.4 79 1.8 NNE 7 9 4 5 1006.9 1006.8 0.4
02/10:00pm 13.6 12.4 10.2 80 1.8 NNW 7 11 4 6 1007.3 1007.2 0.4
02/09:30pm 13.4 12.1 10.0 80 1.8 NW 7 13 4 7 1007.5 1007.4 0.4
02/09:00pm 14.1 11.3 9.9 76 2.2 NW 15 24 8 13 1007.4 1007.3 0.4
02/08:30pm 16.7 13.4 7.9 56 4.5 NNE 15 26 8 14 1006.3 1006.1 0.0
02/08:00pm 16.6 13.0 8.3 58 4.3 NNE 17 26 9 14 1006.8 1006.7 0.0
02/07:30pm 17.0 13.7 8.2 56 4.5 NNE 15 24 8 13 1006.3 1006.1 0.0
02/07:00pm 17.1 13.3 7.7 54 4.8 NE 17 22 9 12 1006.2 1006.0 0.0
02/06:30pm 17.1 13.9 8.3 56 4.5 NE 15 24 8 13 1006.5 1006.3 0.0
02/06:00pm 17.5 14.1 7.8 53 5.0 NE 15 20 8 11 1007.2 1007.1 0.0
02/05:30pm 18.0 14.9 7.4 50 5.4 NE 13 20 7 11 1007.4 1007.3 0.0
02/05:00pm 19.1 15.2 7.2 46 6.1 NNE 17 28 9 15 1007.7 1007.6 0.0
02/04:30pm 19.5 15.8 7.9 47 6.0 NNE 17 26 9 14 1008.0 1007.9 0.0
02/04:00pm 19.0 16.1 8.1 49 5.7 NE 13 20 7 11 1008.5 1008.3 0.0
02/03:30pm 19.0 16.1 8.1 49 5.7 ENE 13 20 7 11 1008.8 1008.6 0.0
02/03:00pm 19.4 16.0 7.8 47 6.0 NNE 15 20 8 11 1009.9 1009.7 0.0
02/02:30pm 19.2 15.3 7.3 46 6.1 N 17 28 9 15 1010.8 1010.7 0.0
02/02:00pm 19.5 15.1 6.6 43 6.5 N 19 30 10 16 1011.1 1011.0 0.0
02/01:30pm 20.6 16.0 6.5 40 7.2 NNE 20 30 11 16 1011.4 1011.3 0.0
02/01:00pm 20.1 15.3 7.5 44 6.5 NNE 22 33 12 18 1012.3 1012.2 0.0
02/12:30pm 19.3 14.8 6.8 44 6.4 NNE 20 32 11 17 1013.0 1012.9 0.0
02/12:00pm 18.9 14.0 8.3 50 5.5 NNE 24 33 13 18 1014.1 1013.9 0.0
02/11:30am 18.1 13.7 7.2 49 5.5 NNE 20 28 11 15 1014.8 1014.7 0.0

Other Formats:

Comma delimited format used in spreadsheet applications
http://www.bom.gov.au/fwo/IDN60801/IDN60801.95710.axf

JavaScript Object Notation format (JSON) in row-major order
http://www.bom.gov.au/fwo/IDN60801/IDN60801.95710.json